createdAt,value
2022-11-28T00:00:48.593Z,7.19
2022-11-28T00:05:52.843Z,7.23
2022-11-28T00:10:56.593Z,7.22
2022-11-28T00:16:04.380Z,7.22
2022-11-28T00:21:11.344Z,7.21
2022-11-28T00:26:17.064Z,7.22
2022-11-28T00:31:24.431Z,7.22
2022-11-28T00:36:28.515Z,7.24
2022-11-28T00:41:33.972Z,7.28
2022-11-28T00:46:39.425Z,7.33
2022-11-28T00:51:43.184Z,7.36
2022-11-28T00:56:46.861Z,7.37
2022-11-28T01:01:52.134Z,7.40
2022-11-28T01:06:57.183Z,7.46
2022-11-28T01:12:00.861Z,7.49
2022-11-28T01:17:05.942Z,7.45
2022-11-28T01:22:09.714Z,7.50
2022-11-28T01:27:13.390Z,7.51
2022-11-28T01:32:18.440Z,7.55
2022-11-28T01:37:22.136Z,7.50
2022-11-28T01:42:25.978Z,7.51
2022-11-28T01:47:32.319Z,7.41
2022-11-28T01:52:39.797Z,7.42
2022-11-28T01:57:43.695Z,7.36
2022-11-28T02:02:50.898Z,7.30
2022-11-28T02:07:55.078Z,7.25
2022-11-28T02:13:14.536Z,7.19
2022-11-28T02:18:35.930Z,7.20
2022-11-28T02:24:00.188Z,7.19
2022-11-28T02:29:37.819Z,7.21
2022-11-28T02:34:51.543Z,7.22
2022-11-28T02:40:06.886Z,7.16
2022-11-28T02:45:14.511Z,7.14
2022-11-28T02:50:25.802Z,7.17
2022-11-28T02:55:29.514Z,7.18
2022-11-28T03:00:36.514Z,7.23
2022-11-28T03:05:47.106Z,7.22
2022-11-28T03:10:56.511Z,7.20
2022-11-28T03:16:12.115Z,7.20
2022-11-28T03:21:23.330Z,7.22
2022-11-28T03:26:34.927Z,7.20
2022-11-28T03:31:42.195Z,7.22
2022-11-28T03:36:52.051Z,7.25
2022-11-28T03:42:01.055Z,7.22
2022-11-28T03:47:07.227Z,7.21
2022-11-28T03:52:17.367Z,7.27
2022-11-28T03:57:29.801Z,7.23
2022-11-28T04:02:39.973Z,7.30
2022-11-28T04:07:47.398Z,7.26
2022-11-28T04:12:58.274Z,7.23
2022-11-28T04:18:07.697Z,7.24
2022-11-28T04:23:16.255Z,7.23
2022-11-28T04:28:24.285Z,7.24
2022-11-28T04:33:33.048Z,7.30
2022-11-28T04:38:40.853Z,7.19
2022-11-28T04:43:49.982Z,7.20
2022-11-28T04:48:53.730Z,7.21
2022-11-28T04:54:02.963Z,7.28
2022-11-28T04:59:08.463Z,7.24
2022-11-28T05:04:13.415Z,7.24
2022-11-28T05:09:18.495Z,7.21
2022-11-28T05:14:22.217Z,7.22
2022-11-28T05:19:25.857Z,7.24
2022-11-28T05:24:32.502Z,7.22
2022-11-28T05:29:36.245Z,7.23
2022-11-28T05:34:40.147Z,7.24
2022-11-28T05:39:45.537Z,7.24
2022-11-28T05:44:49.642Z,7.28
2022-11-28T05:49:53.403Z,7.27
2022-11-28T05:54:58.838Z,7.34
2022-11-28T06:00:02.674Z,7.36
2022-11-28T06:05:35.111Z,7.35
2022-11-28T06:10:40.588Z,7.34
2022-11-28T06:15:45.383Z,7.39
2022-11-28T06:20:49.112Z,7.42
2022-11-28T06:25:54.279Z,7.43
2022-11-28T06:30:57.974Z,7.42
2022-11-28T06:36:02.208Z,7.42
2022-11-28T06:41:09.620Z,7.46
2022-11-28T06:46:16.288Z,7.47
2022-11-28T06:51:21.301Z,7.44
2022-11-28T06:56:26.381Z,7.46
2022-11-28T07:01:31.475Z,7.45
2022-11-28T07:06:35.341Z,7.49
2022-11-28T07:11:43.182Z,7.54
2022-11-28T07:16:47.369Z,7.55
2022-11-28T07:21:51.317Z,7.57
2022-11-28T07:26:56.535Z,7.62
2022-11-28T07:32:00.370Z,7.61
2022-11-28T07:37:04.149Z,7.57
2022-11-28T07:42:09.309Z,7.58
2022-11-28T07:47:13.043Z,7.64
2022-11-28T07:52:16.866Z,7.63
2022-11-28T07:57:21.940Z,7.66
2022-11-28T08:02:27.427Z,7.68
2022-11-28T08:07:31.817Z,7.65
2022-11-28T08:12:36.898Z,7.68
2022-11-28T08:17:40.619Z,7.68
2022-11-28T08:22:44.260Z,7.75
2022-11-28T08:27:49.282Z,7.76
2022-11-28T08:32:52.955Z,7.79
2022-11-28T08:38:01.579Z,7.81
2022-11-28T08:43:08.166Z,7.79
2022-11-28T08:48:12.047Z,7.84
2022-11-28T08:53:18.515Z,7.83
2022-11-28T08:58:23.902Z,7.87
2022-11-28T09:03:27.633Z,7.89
2022-11-28T09:08:31.338Z,7.93
2022-11-28T09:13:37.061Z,7.95
2022-11-28T09:18:40.890Z,7.97
2022-11-28T09:23:45.879Z,7.99
2022-11-28T09:28:51.319Z,8.06
2022-11-28T09:33:55.155Z,8.12
2022-11-28T09:39:00.959Z,8.17
2022-11-28T09:44:15.366Z,8.12
2022-11-28T09:49:30.754Z,8.14
2022-11-28T09:54:45.262Z,8.22
2022-11-28T09:59:50.387Z,8.27
2022-11-28T10:05:04.959Z,8.30
2022-11-28T10:10:18.514Z,8.35
2022-11-28T10:15:41.282Z,8.43
2022-11-28T10:20:48.029Z,8.47
2022-11-28T10:25:56.636Z,8.56
2022-11-28T10:31:06.949Z,8.58
2022-11-28T10:36:16.188Z,8.62
2022-11-28T10:41:25.867Z,8.62
2022-11-28T10:46:44.368Z,8.62
2022-11-28T10:52:01.118Z,8.57
2022-11-28T10:57:12.166Z,8.61
2022-11-28T11:02:23.722Z,8.62
2022-11-28T11:07:30.758Z,8.63
2022-11-28T11:12:35.893Z,8.69
2022-11-28T11:17:40.966Z,8.81
2022-11-28T11:22:55.832Z,8.92
2022-11-28T11:28:01.811Z,8.91
2022-11-28T11:33:14.950Z,8.91
2022-11-28T11:38:32.359Z,8.93
2022-11-28T11:43:40.050Z,9.08
2022-11-28T11:48:46.595Z,9.03
2022-11-28T11:54:00.515Z,9.01
2022-11-28T11:59:10.807Z,8.95
2022-11-28T12:04:43.779Z,8.93
2022-11-28T12:09:47.579Z,9.07
2022-11-28T12:14:52.661Z,9.15
2022-11-28T12:20:10.862Z,9.23
2022-11-28T12:25:19.589Z,9.28
2022-11-28T12:30:26.703Z,9.27
2022-11-28T12:35:39.458Z,9.26
2022-11-28T12:40:53.675Z,9.31
2022-11-28T12:46:06.367Z,9.37
2022-11-28T12:51:21.856Z,9.41
2022-11-28T12:56:39.696Z,9.46
2022-11-28T13:01:55.991Z,9.48
2022-11-28T13:07:10.046Z,9.52
2022-11-28T13:12:24.002Z,9.60
2022-11-28T13:17:42.732Z,9.59
2022-11-28T13:22:59.450Z,9.59
2022-11-28T13:28:12.335Z,9.57
2022-11-28T13:33:31.335Z,9.62
2022-11-28T13:39:09.600Z,9.65
2022-11-28T13:44:18.880Z,9.68
2022-11-28T13:49:24.882Z,9.73
2022-11-28T13:54:42.913Z,9.68
2022-11-28T13:59:48.969Z,9.78
2022-11-28T14:04:52.906Z,9.77
2022-11-28T14:10:16.579Z,9.82
2022-11-28T14:15:30.804Z,9.89
2022-11-28T14:20:46.733Z,9.93
2022-11-28T14:25:54.559Z,9.79
2022-11-28T14:31:06.086Z,9.87
2022-11-28T14:36:26.144Z,9.91
2022-11-28T14:41:31.503Z,9.93
2022-11-28T14:46:35.312Z,9.94
2022-11-28T14:52:38.586Z,9.83
2022-11-28T14:57:58.206Z,9.83
2022-11-28T15:03:27.048Z,9.80
2022-11-28T15:08:50.281Z,9.81
2022-11-28T15:14:16.047Z,9.78
2022-11-28T15:19:25.555Z,9.71
2022-11-28T15:24:33.235Z,9.62
2022-11-28T15:29:38.332Z,9.59
2022-11-28T15:34:42.439Z,9.50
2022-11-28T15:39:48.645Z,9.47
2022-11-28T15:44:57.919Z,9.47
2022-11-28T15:50:03.898Z,9.41
2022-11-28T15:55:16.683Z,9.39
2022-11-28T16:00:24.358Z,9.29
2022-11-28T16:05:28.710Z,9.31
2022-11-28T16:10:38.154Z,9.23
2022-11-28T16:15:50.105Z,9.15
2022-11-28T16:20:55.220Z,9.12
2022-11-28T16:26:03.557Z,9.11
2022-11-28T16:31:13.681Z,9.04
2022-11-28T16:36:21.950Z,8.89
2022-11-28T16:41:26.512Z,8.88
2022-11-28T16:46:35.901Z,8.80
2022-11-28T16:51:41.807Z,8.81
2022-11-28T16:56:45.627Z,8.82
2022-11-28T17:01:54.785Z,8.78
2022-11-28T17:07:04.252Z,8.72
2022-11-28T17:12:12.603Z,8.68
2022-11-28T17:17:19.899Z,8.67
2022-11-28T17:22:25.962Z,8.61
2022-11-28T17:27:29.693Z,8.51
2022-11-28T17:32:34.726Z,8.53
2022-11-28T17:37:38.665Z,8.46
2022-11-28T17:42:42.363Z,8.49
2022-11-28T17:47:47.621Z,8.51
2022-11-28T17:52:51.500Z,8.49
2022-11-28T17:57:55.247Z,8.43
2022-11-28T18:03:01.513Z,8.41
2022-11-28T18:08:05.611Z,8.43
2022-11-28T18:13:12.206Z,8.41
2022-11-28T18:18:17.432Z,8.40
2022-11-28T18:23:21.487Z,8.38
2022-11-28T18:28:26.032Z,8.34
2022-11-28T18:33:31.165Z,8.33
2022-11-28T18:38:34.921Z,8.33
2022-11-28T18:43:39.636Z,8.31
2022-11-28T18:48:47.034Z,8.28
2022-11-28T18:53:52.103Z,8.26
2022-11-28T18:58:57.644Z,8.22
2022-11-28T19:04:04.446Z,8.17
2022-11-28T19:09:10.434Z,8.12
2022-11-28T19:14:16.368Z,8.10
2022-11-28T19:19:21.626Z,8.06
2022-11-28T19:24:26.070Z,8.01
2022-11-28T19:29:29.974Z,7.99
2022-11-28T19:34:36.542Z,7.94
2022-11-28T19:39:40.415Z,7.89
2022-11-28T19:44:44.270Z,7.88
2022-11-28T19:49:50.051Z,7.83
2022-11-28T19:54:54.315Z,7.78
2022-11-28T19:59:58.926Z,7.77
2022-11-28T20:05:04.098Z,7.72
2022-11-28T20:10:09.502Z,7.66
2022-11-28T20:15:18.157Z,7.64
2022-11-28T20:20:23.929Z,7.63
2022-11-28T20:25:27.883Z,7.63
2022-11-28T20:30:31.620Z,7.59
2022-11-28T20:35:36.826Z,7.57
2022-11-28T20:40:41.113Z,7.54
2022-11-28T20:45:44.985Z,7.52
2022-11-28T20:50:50.136Z,7.49
2022-11-28T20:56:00.432Z,7.46
2022-11-28T21:01:05.109Z,7.43
2022-11-28T21:06:10.334Z,7.41
2022-11-28T21:11:36.566Z,7.41
2022-11-28T21:16:39.703Z,7.37
2022-11-28T21:21:44.898Z,7.32
2022-11-28T21:26:53.450Z,7.32
2022-11-28T21:31:58.072Z,7.32
2022-11-28T21:37:03.270Z,7.28
2022-11-28T21:42:07.230Z,7.23
2022-11-28T21:47:10.926Z,7.15
2022-11-28T21:52:16.769Z,7.10
2022-11-28T21:57:20.932Z,7.03
2022-11-28T22:02:30.461Z,6.97
2022-11-28T22:07:37.780Z,6.92
2022-11-28T22:12:41.689Z,6.89
2022-11-28T22:17:45.744Z,6.87
2022-11-28T22:22:51.203Z,6.83
2022-11-28T22:27:54.909Z,6.79
2022-11-28T22:32:59.207Z,6.76
2022-11-28T22:38:04.588Z,6.76
2022-11-28T22:43:09.072Z,6.77
2022-11-28T22:48:12.832Z,6.82
2022-11-28T22:53:18.242Z,6.82
2022-11-28T22:58:22.097Z,6.84
2022-11-28T23:03:25.891Z,6.82
2022-11-28T23:08:31.874Z,6.80
2022-11-28T23:13:36.159Z,6.76
2022-11-28T23:18:41.392Z,6.70
2022-11-28T23:23:46.834Z,6.66
2022-11-28T23:28:51.311Z,6.61
2022-11-28T23:33:55.222Z,6.58
2022-11-28T23:39:02.622Z,6.54
2022-11-28T23:44:06.524Z,6.50
2022-11-28T23:49:10.938Z,6.45
2022-11-28T23:54:16.008Z,6.41
2022-11-28T23:59:19.938Z,6.39
